Terminal Aerodrome Forecast
Issued by NWS Bismarck, ND

Home | Current Version | Previous Version | Graphics & Text | Print | Product List | Glossary On
Versions: 1 2 3 4 5 6 7 8 9 10 11 12 13
000
FTUS43 KBIS 171128
TAFISN
TAF
KISN 171128Z 1712/1812 33006KT P6SM SCT250
     FM171400 00000KT P6SM SCT200
     FM180300 35004KT P6SM BKN100
     FM180800 32007KT P6SM SCT110=

USA.gov is the U.S. government's official web portal to all federal, state and local government web resources and services.